• Join FlightAware (Why Join?)
  • Login
  • US Flag 
06:11AM EDT


 

Airport Tracker/Info


-or-


 

Live Flight TrackerFlight Track Log ✈ UAL326 ✈ 10-May-2013 ✈ KIAD - KSEA

Flight Track Log - Related Links

Times and Time Zones

All times are in EDT time to prevent confusion due to time zone crossing. See the UAL326 flight status page for this flight to view local times or setup timezone preferences in your user account.

Time Position Orientation Groundspeed Altitude Reporting Facility
EDT Latitude Longitude Course Direction KTS MPH feet Rate Location/Type
06:06PM 38.9167 -77.4500 270° West 178 205 1,800  Level Potomac TRACON
06:07PM 38.8667 -77.5000 218° Southwest 216 249 3,500 2,040 Climbing Potomac TRACON
06:08PM 38.8167 -77.5500 218° Southwest 248 285 6,200 2,400 Climbing Potomac TRACON
06:09PM 38.8719 -77.8753 261° West  Level FlightAware Approximate
06:10PM 38.8958 -78.0162 288° West  Level FlightAware Approximate
06:10PM 38.7706 -77.6606 242° Southwest 260 299 9,700  Level Washington Center
06:11PM 38.9311 -78.1576 288° West  Level FlightAware Approximate
06:11PM 38.7836 -77.7542 280° West 250 288 11,900  Level Washington Center
06:12PM 38.9500 -78.2993 270° West  Level FlightAware Approximate
06:12PM 38.8172 -77.8431 296° West 256 295 13,600  Level Washington Center
06:13PM 38.8531 -77.9347 297° West 275 316 15,700 2,040 Climbing Washington Center
06:14PM 38.8908 -78.0319 297° West 288 331 17,800 1,920 Climbing Washington Center
06:15PM 38.9283 -78.1319 296° West 304 350 19,600 1,860 Climbing Washington Center
06:16PM 38.9594 -78.2372 291° West 311 358 21,500 1,800 Climbing Washington Center
06:17PM 38.9486 -78.3489 263° West 305 351 23,300 1,680 Climbing Washington Center
06:18PM 38.9439 -78.4633 267° West 313 360 24,900 1,380 Climbing Washington Center
06:19PM 38.9703 -78.5714 287° West 320 368 26,100 1,200 Climbing Washington Center
06:20PM 39.0008 -78.6875 289° West 325 374 27,300 1,200 Climbing Washington Center
06:21PM 39.0039 -78.8103 272° West 332 382 28,500 1,140 Climbing Washington Center
06:22PM 39.0067 -78.9308 272° West 338 389 29,600 1,080 Climbing Washington Center
06:23PM 39.0094 -79.0539 272° West 345 397 30,700 960 Climbing Washington Center
06:24PM 39.0100 -79.1819 270° West 352 405 31,600 600 Climbing Washington Center
06:25PM 39.0103 -79.3103 270° West 352 405 32,000 180 Climbing Washington Center
06:26PM 39.0100 -79.4464 270° West 367 422 32,000  Level Washington Center
06:27PM 39.0094 -79.5961 270° West 394 453 32,000  Level Washington Center
06:28PM 39.0106 -79.7483 271° West 416 479 32,000  Level Washington Center
06:29PM 39.0072 -79.9006 268° West 426 490 32,000  Level Washington Center
06:30PM 39.0072 -80.0661 270° West 426 490 32,000  Level Washington Center
06:31PM 39.0053 -80.1369 268° West 423 487 32,000  Level Indianapolis Center
06:32PM 39.0075 -80.3156 271° West 417 480 32,000  Level Indianapolis Center
06:33PM 39.0111 -80.4656 272° West 420 483 32,000  Level Indianapolis Center
06:34PM 39.0233 -80.6133 276° West 429 494 32,000  Level Indianapolis Center
06:35PM 39.0739 -80.7528 295° West 431 496 32,000  Level Indianapolis Center
06:36PM 39.1264 -80.8944 296° West 440 506 32,000  Level Indianapolis Center
06:37PM 39.1803 -81.0347 296° West 440 506 32,000  Level Indianapolis Center
06:38PM 39.2467 -81.2050 297° West 445 512 32,000  Level Indianapolis Center
06:39PM 39.3011 -81.3467 296° West 446 513 32,000  Level Indianapolis Center
06:40PM 39.3556 -81.4894 296° West 446 513 32,000  Level Indianapolis Center
06:41PM 39.4106 -81.6342 296° West 449 517 32,000  Level Indianapolis Center
06:42PM 39.4656 -81.7794 296° West 451 519 32,000  Level Indianapolis Center
06:43PM 39.5308 -81.9522 296° West 448 516 32,000  Level Indianapolis Center
06:44PM 39.5853 -82.0986 296° West 451 519 32,000 -60 Level Indianapolis Center
06:45PM 39.6425 -82.2514 296° West 450 518 31,900  Descending Indianapolis Center
06:46PM 39.6972 -82.4014 295° West 457 526 32,000  Climbing Indianapolis Center
06:47PM 39.7531 -82.5508 296° West 455 524 32,000  Level Indianapolis Center
06:48PM 39.8072 -82.7014 295° West 456 525 32,000  Level Indianapolis Center
06:49PM 39.8633 -82.8514 296° West 460 529 32,000  Level Indianapolis Center
06:50PM 39.9167 -83.0017 295° West 456 525 32,000  Level Indianapolis Center
06:51PM 39.9800 -83.1772 295° West 458 527 32,000  Level Indianapolis Center
06:52PM 40.0342 -83.3269 295° West 459 528 32,000  Level Indianapolis Center
06:53PM 40.0875 -83.4769 295° West 459 528 32,000  Level Indianapolis Center
06:54PM 40.1411 -83.6267 295° West 457 526 32,000  Level Indianapolis Center
06:55PM 40.1942 -83.7781 295° West 457 526 32,000  Level Indianapolis Center
06:56PM 40.2567 -83.9544 295° West 457 526 32,000 360 Level Indianapolis Center
06:57PM 40.2886 -84.1125 285° West 448 516 32,800 480 Climbing Indianapolis Center
06:58PM 40.3089 -84.2711 280° West 438 504 33,000 60 Climbing Indianapolis Center
06:59PM 40.3300 -84.4292 280° West 438 504 33,000  Level Indianapolis Center
07:00PM 40.3483 -84.5881 279° West 439 505 33,000 480 Level Indianapolis Center
07:02PM 40.3683 -84.7456 280° West 437 503 34,000 480 Climbing Indianapolis Center
07:03PM 40.4167 -84.8956 293° West 444 511 34,000  Level Indianapolis Center
07:04PM 40.4753 -85.0633 295° West 443 510 34,000  Level Indianapolis Center
07:04PM 40.5053 -85.1478 295° West 440 506 34,000  Level Chicago Center
07:05PM 40.5550 -85.2925 294° West 438 504 34,000  Level Chicago Center
07:06PM 40.6050 -85.4372 295° West 439 505 34,000  Level Chicago Center
07:07PM 40.6553 -85.5828 295° West 440 506 34,000  Level Chicago Center
07:08PM 40.7125 -85.7531 294° West 437 503 34,000  Level Chicago Center
07:09PM 40.7622 -85.8994 294° West 437 503 34,000  Level Chicago Center
07:10PM 40.8125 -86.0458 294° West 438 504 34,000  Level Chicago Center
07:11PM 40.8611 -86.1922 294° West 436 502 34,000  Level Chicago Center
07:12PM 40.9089 -86.3386 293° West 435 501 34,000  Level Chicago Center
07:14PM 40.9700 -86.5133 295° West 435 501 34,000  Level Chicago Center
07:15PM 41.0183 -86.6572 294° West 429 494 34,000  Level Chicago Center
07:16PM 41.0667 -86.8072 293° West 417 480 34,000  Level Chicago Center
07:17PM 41.1111 -86.9456 293° West 413 475 34,000  Level Chicago Center
07:18PM 41.1558 -87.0822 294° West 406 467 34,000  Level Chicago Center
07:19PM 41.1994 -87.2192 293° West 405 466 34,000  Level Chicago Center
07:20PM 41.2447 -87.3558 294° West 406 467 34,000  Level Chicago Center
07:21PM 41.2981 -87.5242 293° West 416 479 34,000  Level Chicago Center
07:22PM 41.3442 -87.6706 293° West 429 494 34,000  Level Chicago Center
07:23PM 41.3906 -87.8153 293° West 431 496 34,000  Level Chicago Center
07:24PM 41.4372 -87.9586 294° West 434 499 34,000  Level Chicago Center
07:25PM 41.4947 -88.1269 295° West 440 506 34,000  Level Chicago Center
07:26PM 41.5400 -88.2703 293° West 429 494 34,000  Level Chicago Center
07:27PM 41.5875 -88.4169 293° West 433 498 34,000  Level Chicago Center
07:28PM 41.6350 -88.5667 293° West 438 504 34,000  Level Chicago Center
07:29PM 41.6819 -88.7153 293° West 437 503 34,000  Level Chicago Center
07:30PM 41.7383 -88.8944 293° West 439 505 34,000  Level Chicago Center
07:31PM 41.7867 -89.0436 294° West 439 505 34,000  Level Chicago Center
07:32PM 41.8342 -89.1933 293° West 440 506 34,000  Level Chicago Center
07:33PM 41.8811 -89.3458 293° West 444 511 34,000  Level Chicago Center
07:34PM 41.9267 -89.4953 292° West 436 502 34,000  Level Chicago Center
07:35PM 41.9806 -89.6731 292° West 431 496 34,000  Level Chicago Center
07:36PM 42.0247 -89.8211 292° West 429 494 34,000  Level Chicago Center
07:37PM 42.0700 -89.9650 293° West 435 501 34,000  Level Chicago Center
07:38PM 42.1136 -90.1122 292° West 430 495 34,000  Level Chicago Center
07:39PM 42.1583 -90.2586 292° West 426 490 34,000  Level Chicago Center
07:40PM 42.2114 -90.4333 292° West 424 488 34,000  Level Chicago Center
07:41PM 42.2556 -90.5828 292° West 430 495 34,000  Level Chicago Center
07:42PM 42.2994 -90.7322 292° West 430 495 34,000  Level Chicago Center
07:43PM 42.3442 -90.8833 292° West 436 502 34,000  Level Chicago Center
07:45PM 42.3883 -91.0358 291° West 438 504 34,000  Level Chicago Center
07:46PM 42.4414 -91.2192 291° West 440 506 34,000  Level Chicago Center
07:47PM 42.4850 -91.3742 291° West 442 509 34,000  Level Chicago Center
07:48PM 42.5303 -91.5294 292° West 442 509 34,000  Level Chicago Center
07:49PM 42.5756 -91.6864 291° West 443 510 34,000  Level Chicago Center
07:50PM 42.6192 -91.8433 291° West 441 507 34,000  Level Chicago Center
07:51PM 42.6619 -91.9992 291° West 440 506 34,000  Level Chicago Center
07:52PM 42.7056 -92.1544 291° West 441 507 34,000  Level Chicago Center
07:53PM 42.7569 -92.3411 291° West 441 507 34,000  Level Chicago Center
07:54PM 42.7989 -92.4969 290° West 441 507 34,000  Level Chicago Center
07:55PM 42.8417 -92.6528 291° West 441 507 34,000  Level Chicago Center
07:56PM 42.8836 -92.8089 290° West 440 506 34,000  Level Chicago Center
07:57PM 42.9261 -92.9658 290° West 443 510 34,000  Level Chicago Center
07:58PM 42.9747 -93.1508 290° West 438 504 34,000  Level Chicago Center
07:59PM 43.0100 -93.3042 288° West 432 497 34,000  Level Chicago Center
08:00PM 43.0644 -93.4869 292° West 430 495 34,000  Level Minneapolis Center
08:02PM 43.1364 -93.7922 288° West 428 493 34,000  Level Chicago Center
08:03PM 43.1753 -93.9406 290° West 423 487 34,000  Level Chicago Center
08:04PM 43.2203 -94.0903 292° West 421 484 34,000  Level Minneapolis Center
08:05PM 43.2683 -94.2661 291° West 419 482 34,000  Level Minneapolis Center
08:06PM 43.3067 -94.4175 289° West 422 486 34,000  Level Minneapolis Center
08:07PM 43.3450 -94.5672 289° West 418 481 34,000  Level Minneapolis Center
08:09PM 43.3822 -94.7181 289° West 418 481 34,000  Level Minneapolis Center
08:10PM 43.4269 -94.8994 289° West 418 481 34,000  Level Minneapolis Center
08:11PM 43.4650 -95.0503 289° West 417 480 34,000  Level Minneapolis Center
08:12PM 43.5158 -95.2600 289° West 414 476 34,000  Level Minneapolis Center
08:13PM 43.5531 -95.4117 289° West 417 480 34,000  Level Minneapolis Center
08:14PM 43.5886 -95.5608 288° West 412 474 34,000  Level Minneapolis Center
08:15PM 43.6253 -95.7111 289° West 413 475 34,000  Level Minneapolis Center
08:16PM 43.6686 -95.8897 289° West 409 471 34,000  Level Minneapolis Center
08:17PM 43.7047 -96.0406 288° West 411 473 34,000  Level Minneapolis Center
08:18PM 43.7397 -96.1906 288° West 409 471 34,000  Level Minneapolis Center
08:19PM 43.7822 -96.3706 288° West 409 471 34,000  Level Minneapolis Center
08:21PM 43.8167 -96.5217 288° West 409 471 34,000  Level Minneapolis Center
08:22PM 43.8581 -96.7028 288° West 409 471 34,000  Level Minneapolis Center
08:23PM 43.8856 -96.8231 288° West 408 470 34,000  Level Minneapolis Center
08:24PM 43.9261 -97.0028 287° West 407 468 34,000  Level Minneapolis Center
08:25PM 43.9606 -97.1517 288° West 406 467 34,000  Level Minneapolis Center
08:26PM 43.9869 -97.2714 287° West 405 466 34,000  Level Minneapolis Center
08:27PM 44.0269 -97.4506 287° West 405 466 34,000  Level Minneapolis Center
08:28PM 44.0658 -97.6297 287° West 405 466 34,000  Level Minneapolis Center
08:29PM 44.0992 -97.7783 287° West 402 463 34,000  Level Minneapolis Center
08:30PM 44.1319 -97.9272 287° West 402 463 34,000  Level Minneapolis Center
08:31PM 44.1631 -98.0778 286° West 405 466 34,000  Level Minneapolis Center
08:32PM 44.1956 -98.2275 287° West 404 465 34,000  Level Minneapolis Center
08:33PM 44.2278 -98.3769 287° West 403 464 34,000  Level Minneapolis Center
08:34PM 44.2639 -98.5542 286° West 402 463 34,000  Level Minneapolis Center
08:35PM 44.2939 -98.7039 286° West 400 460 34,000  Level Minneapolis Center
08:36PM 44.3253 -98.8514 287° West 397 457 34,000  Level Minneapolis Center
08:37PM 44.3564 -98.9983 287° West 395 455 34,000  Level Minneapolis Center
08:38PM 44.3878 -99.1478 286° West 397 457 34,000  Level Minneapolis Center
08:39PM 44.4164 -99.2981 285° West 398 458 34,000  Level Minneapolis Center
08:40PM 44.4456 -99.4489 285° West 400 460 34,000  Level Minneapolis Center
08:41PM 44.4814 -99.6311 285° West 402 463 34,000  Level Minneapolis Center
08:42PM 44.5114 -99.7833 285° West 404 465 34,000  Level Minneapolis Center
08:43PM 44.5414 -99.9344 286° West 402 463 34,000  Level Minneapolis Center
08:44PM 44.5772 -100.1169 285° West 402 463 34,000  Level Minneapolis Center
08:46PM 44.6075 -100.2686 286° West 402 463 34,000  Level Minneapolis Center
08:47PM 44.6372 -100.4214 285° West 403 464 34,000  Level Minneapolis Center
08:48PM 44.6667 -100.5728 285° West 402 463 34,000  Level Minneapolis Center
08:49PM 44.6892 -100.6947 285° West 401 461 34,000  Level Minneapolis Center
08:50PM 44.7283 -100.9086 285° West 402 463 34,000  Level Minneapolis Center
08:51PM 44.7558 -101.0603 284° West 401 461 34,000  Level Minneapolis Center
08:52PM 44.7833 -101.2103 285° West 399 459 34,000  Level Minneapolis Center
08:53PM 44.8108 -101.3619 284° West 399 459 34,000  Level Minneapolis Center
08:54PM 44.8408 -101.5156 285° West 403 464 34,000  Level Minneapolis Center
08:56PM 44.9011 -101.8536 284° West 404 465 34,000  Level Minneapolis Center
08:57PM 44.9283 -102.0092 284° West 407 468 34,000  Level Minneapolis Center
08:58PM 44.9550 -102.1636 284° West 407 468 34,000  Level Minneapolis Center
08:59PM 44.9817 -102.3183 284° West 406 467 34,000  Level Minneapolis Center
09:00PM 45.0089 -102.4742 284° West 408 470 34,000  Level Minneapolis Center
09:01PM 45.0353 -102.6303 284° West 408 470 34,000  Level Minneapolis Center
09:02PM 45.0725 -102.8489 284° West 408 470 34,000  Level Minneapolis Center
09:04PM 45.1025 -103.0364 283° West 407 468 34,000  Level Minneapolis Center
09:05PM 45.1292 -103.1922 284° West 407 468 34,000  Level Minneapolis Center
09:05PM 45.1444 -103.2942 282° West 409 471 34,000  Level Salt Lake Center
09:06PM 45.1678 -103.4414 283° West 406 467 34,000  Level Salt Lake Center
09:07PM 45.1928 -103.5975 283° West 406 467 34,000  Level Salt Lake Center
09:08PM 45.2169 -103.7508 283° West 401 461 34,000  Level Salt Lake Center
09:09PM 45.2417 -103.9064 283° West 404 465 34,000  Level Salt Lake Center
09:10PM 45.2664 -104.0597 283° West 400 460 34,000  Level Salt Lake Center
09:11PM 45.2900 -104.2158 282° West 404 465 34,000  Level Salt Lake Center
09:12PM 45.3189 -104.4047 282° West 407 468 34,000  Level Salt Lake Center
09:13PM 45.3411 -104.5564 282° West 406 467 34,000  Level Salt Lake Center
09:14PM 45.3625 -104.7075 281° West 407 468 34,000  Level Salt Lake Center
09:15PM 45.3889 -104.8847 282° West 410 472 34,000  Level Salt Lake Center
09:16PM 45.4097 -105.0364 281° West 408 470 34,000  Level Salt Lake Center
09:17PM 45.4358 -105.2139 282° West 410 472 34,000  Level Salt Lake Center
09:18PM 45.4561 -105.3664 281° West 411 473 34,000  Level Salt Lake Center
09:19PM 45.4767 -105.5192 281° West 411 473 34,000  Level Salt Lake Center
09:21PM 45.5019 -105.6986 281° West 413 475 34,000  Level Salt Lake Center
09:22PM 45.5231 -105.8519 281° West 414 476 34,000  Level Salt Lake Center
09:23PM 45.5481 -106.0336 281° West 417 480 34,000  Level Salt Lake Center
09:24PM 45.5683 -106.1872 281° West 414 476 34,000  Level Salt Lake Center
09:25PM 45.5925 -106.3675 281° West 415 478 34,000  Level Salt Lake Center
09:26PM 45.6142 -106.5236 281° West 417 480 34,000  Level Salt Lake Center
09:27PM 45.6350 -106.6800 281° West 419 482 34,000  Level Salt Lake Center
09:28PM 45.6603 -106.8644 281° West 422 486 34,000  Level Salt Lake Center
09:29PM 45.6808 -107.0225 281° West 424 488 34,000  Level Salt Lake Center
09:30PM 45.7064 -107.2081 281° West 427 491 34,000  Level Salt Lake Center
09:31PM 45.7250 -107.3619 280° West 412 474 34,000  Level Salt Lake Center
09:32PM 45.7444 -107.5200 280° West 421 484 34,000  Level Salt Lake Center
09:33PM 45.7669 -107.7050 280° West 424 488 34,000  Level Salt Lake Center
09:34PM 45.7864 -107.8656 280° West 430 495 34,000 180 Level Salt Lake Center
09:35PM 45.8078 -108.0483 280° West 422 486 34,400 780 Climbing Salt Lake Center
09:36PM 45.8261 -108.2067 279° West 422 486 35,700 780 Climbing Salt Lake Center
09:37PM 45.8472 -108.3900 279° West 421 484 36,000 120 Climbing Salt Lake Center
09:38PM 45.8656 -108.5469 280° West 418 481 36,000  Level Salt Lake Center
09:39PM 45.8839 -108.7069 279° West 423 487 36,000  Level Salt Lake Center
09:40PM 45.9033 -108.8892 279° West 417 480 36,000  Level Salt Lake Center
09:41PM 45.9206 -109.0472 279° West 419 482 36,000  Level Salt Lake Center
09:42PM 45.9406 -109.2317 279° West 419 482 36,000  Level Salt Lake Center
09:43PM 45.9575 -109.3903 279° West 420 483 36,000  Level Salt Lake Center
09:44PM 45.9778 -109.5756 279° West 421 484 36,000  Level Salt Lake Center
09:45PM 45.9936 -109.7367 278° West 426 490 36,000  Level Salt Lake Center
09:46PM 46.0083 -109.8994 277° West 430 495 36,000  Level Salt Lake Center
09:47PM 46.0275 -110.0853 279° West 424 488 36,000  Level Salt Lake Center
09:48PM 46.0431 -110.2444 278° West 421 484 36,000  Level Salt Lake Center
09:49PM 46.0600 -110.4311 278° West 421 484 36,000  Level Salt Lake Center
09:50PM 46.0747 -110.5889 278° West 417 480 36,000  Level Salt Lake Center
09:51PM 46.0906 -110.7406 279° West 418 481 36,000  Level Salt Lake Center
09:52PM 46.1092 -110.9378 278° West 418 481 36,000  Level Salt Lake Center
09:53PM 46.1239 -111.1019 277° West 417 480 36,000  Level Salt Lake Center
09:54PM 46.1375 -111.2675 277° West 421 484 36,000  Level Salt Lake Center
09:55PM 46.1522 -111.4336 277° West 421 484 36,000  Level Salt Lake Center
09:56PM 46.1658 -111.6000 277° West 421 484 36,000  Level Salt Lake Center
09:57PM 46.1800 -111.7683 277° West 424 488 36,000  Level Salt Lake Center
09:58PM 46.1947 -111.9347 277° West 421 484 36,000  Level Salt Lake Center
09:59PM 46.2111 -112.1367 277° West 422 486 36,000  Level Salt Lake Center
10:00PM 46.2233 -112.3042 276° West 422 486 36,000  Level Salt Lake Center
10:01PM 46.2369 -112.4728 277° West 422 486 36,000  Level Salt Lake Center
10:03PM 46.2494 -112.6411 276° West 423 487 36,000  Level Salt Lake Center
10:04PM 46.2617 -112.8083 276° West 421 484 36,000  Level Salt Lake Center
10:05PM 46.2739 -112.9786 276° West 424 488 36,000  Level Salt Lake Center
10:06PM 46.2894 -113.1447 278° West 419 482 36,000  Level Salt Lake Center
10:07PM 46.3003 -113.3183 275° West 426 490 36,000  Level Salt Lake Center
10:08PM 46.3114 -113.4881 275° West 425 489 36,000  Level Salt Lake Center
10:09PM 46.3236 -113.6564 276° West 422 486 36,000  Level Salt Lake Center
10:10PM 46.3364 -113.8581 275° West 420 483 36,000  Level Salt Lake Center
10:11PM 46.3469 -114.0292 275° West 425 489 36,000  Level Salt Lake Center
10:12PM 46.3569 -114.2006 275° West 427 491 36,000 -60 Level Salt Lake Center
10:13PM 46.3683 -114.3697 276° West 424 488 35,900  Descending Salt Lake Center
10:14PM 46.3786 -114.5414 275° West 427 491 36,000  Climbing Salt Lake Center
10:15PM 46.3883 -114.7133 275° West 428 493 36,000  Level Salt Lake Center
10:16PM 46.3978 -114.8847 275° West 429 494 36,000  Level Salt Lake Center
10:17PM 46.4069 -115.0572 274° West 429 494 36,000  Level Salt Lake Center
10:18PM 46.4153 -115.2308 274° West 428 493 36,000  Level Salt Lake Center
10:19PM 46.4256 -115.4372 274° West 429 494 36,000  Level Salt Lake Center
10:20PM 46.4306 -115.5403 274° West 428 493 36,000  Level Seattle Center
10:21PM 46.4417 -115.7483 275° West 430 495 36,000  Level Seattle Center
10:22PM 46.4511 -115.9208 275° West 431 496 36,000  Level Seattle Center
10:23PM 46.4589 -116.0944 274° West 431 496 36,000  Level Seattle Center
10:24PM 46.4667 -116.2689 274° West 432 497 36,000  Level Seattle Center
10:25PM 46.4736 -116.4400 273° West 427 491 36,000  Level Seattle Center
10:26PM 46.4811 -116.6158 274° West 433 498 36,000  Level Seattle Center
10:27PM 46.4875 -116.7897 273° West 433 498 36,000  Level Seattle Center
10:28PM 46.4939 -116.9636 273° West 432 497 36,000  Level Seattle Center
10:29PM 46.5006 -117.1331 273° West 425 489 36,000  Level Seattle Center
10:30PM 46.5064 -117.3053 273° West 426 490 36,000  Level Seattle Center
10:31PM 46.5103 -117.4753 272° West 424 488 36,000  Level Seattle Center
10:32PM 46.5158 -117.6433 273° West 420 483 36,000  Level Seattle Center
10:33PM 46.5197 -117.8086 272° West 414 476 36,000  Level Seattle Center
10:34PM 46.5253 -117.9761 273° West 414 476 36,000  Level Seattle Center
10:35PM 46.5297 -118.1447 272° West 417 480 36,000  Level Seattle Center
10:36PM 46.5347 -118.3133 273° West 417 480 36,000  Level Seattle Center
10:37PM 46.5508 -118.4786 278° West 414 476 36,000  Level Seattle Center
10:38PM 46.5758 -118.6733 281° West 410 472 36,000  Level Seattle Center
10:39PM 46.5953 -118.8361 280° West 410 472 36,000  Level Seattle Center
10:40PM 46.6111 -118.9789 279° West 414 476 36,000  Level Seattle Center
10:41PM 46.6300 -119.1433 280° West 414 476 36,000  Level Seattle Center
10:42PM 46.6508 -119.3408 279° West 415 478 36,000  Level Seattle Center
10:43PM 46.6697 -119.5061 280° West 417 480 36,000 -420 Level Seattle Center
10:44PM 46.6864 -119.6703 278° West 413 475 35,200 -1,140 Descending Seattle Center
10:45PM 46.7039 -119.8353 279° West 414 476 33,800 -1,320 Descending Seattle Center
10:46PM 46.7206 -120.0039 278° West 421 484 32,600 -1,200 Descending Seattle Center
10:47PM 46.7381 -120.1731 279° West 423 487 31,400 -1,200 Descending Seattle Center
10:48PM 46.7542 -120.3483 278° West 435 501 30,300 -1,620 Descending Seattle Center
10:49PM 46.7694 -120.5206 277° West 433 498 28,200 -2,340 Descending Seattle Center
10:50PM 46.7853 -120.6925 278° West 429 494 25,600 -2,640 Descending Seattle Center
10:51PM 46.8019 -120.8608 278° West 423 487 22,900 -2,700 Descending Seattle Center
10:52PM 46.8394 -121.0169 289° West 414 476 20,200 -2,820 Descending Seattle Center
10:53PM 46.9056 -121.1542 305° West 414 476 17,300 -3,000 Descending Seattle Center
10:54PM 46.9667 -121.2944 303° West 410 472 14,200 -2,580 Descending Seattle Center
10:55PM 47.0406 -121.4453 306° West 379 436 12,100 -1,620 Descending Seattle Center
10:56PM 47.0606 -121.4825 308° West 325 374 12,000 -120 Descending Seattle Center
10:56PM 47.0875 -121.5444 303° West 298 343 12,000  Level Seattle Center
10:57PM 47.1217 -121.6211 303° West 279 321 12,000  Level Seattle Center
10:58PM 47.1625 -121.7094 304° West 288 331 12,000  Level Seattle Center
10:58PM 47.1733 -121.7522 290° West 288 331 12,000 -720 Level Seattle Center
10:59PM 47.1744 -121.8236 271° West 279 321 11,300 -1,320 Descending Seattle Center
10:59PM 47.1756 -121.8664 272° West 280 322 10,700 -1,680 Descending Seattle Center
11:00PM 47.1767 -121.9269 272° West 278 320 9,800 -1,500 Descending Seattle Center
11:00PM 47.1797 -121.9803 275° West 279 321 9,200 -1,320 Descending Seattle Center
11:01PM 47.1811 -122.0386 272° West 276 318 8,500 -1,320 Descending Seattle Center
11:01PM 47.1828 -122.0911 273° West 273 314 7,900 -1,620 Descending Seattle Center
11:02PM 47.1831 -122.1586 270° West 271 312 6,900 -1,500 Descending Seattle Center
11:02PM 47.1853 -122.2008 274° West 269 310 6,400 -1,380 Descending Seattle Center
11:03PM 47.1969 -122.2650 285° West 269 310 5,500 -1,320 Descending Seattle Center
11:03PM 47.2186 -122.2942 318° Northwest 270 311 5,100 -1,200 Descending Seattle Center
11:04PM 47.2622 -122.3206 338° Northwest 254 292 4,200 -1,620 Descending Seattle Center
11:04PM 47.2847 -122.3206 360° North 256 295 3,500 -1,740 Descending Seattle Center
11:05PM 47.3306 -122.3189 North 240 276 2,500 -1,380 Descending Seattle Center
11:05PM 47.3547 -122.3192 360° North 236 272 2,100 -1,080 Descending Seattle Center
11:06PM 47.3933 -122.3203 359° North 180 207 1,300 -840 Descending Seattle Center
11:07PM 47.4347 -122.3172 North 126 145 600 -420 Descending Seattle Center
11:08PM 47.4742 -122.3183 359° North 134 154 400 -180 Descending Seattle Center